Terminal Aerodrome Forecast
Issued by NWS Tampa Bay Area, FL

Home | Current Version | Previous Version | Text Only | Print | Product List | Glossary On
Versions: 1 2 3 4 5 6 7 8 9 10 11 12 13 14 15 16 17 18 19 20 21 22 23 24 25 26
000
FTUS42 KTBW 031502 AAA
TAFTPA
TAF AMD
KTPA 031502Z 0315/0412 09012KT P6SM FEW070
     FM031700 09012G18KT P6SM FEW040 FEW250
     FM032300 07010KT P6SM FEW040 FEW250
     FM040200 09006KT P6SM FEW250=

USA.gov is the U.S. government's official web portal to all federal, state and local government web resources and services.